sensor_id;sensor_type;location;lat;lon;timestamp;pressure;altitude;pressure_sealevel;temperature
20867;BMP280;10593;48.398;10.698;2023-04-24T00:01:43;95247.72;;;21.62
20867;BMP280;10593;48.398;10.698;2023-04-24T00:04:09;95254.84;;;21.60
20867;BMP280;10593;48.398;10.698;2023-04-24T00:06:37;95244.63;;;21.57
20867;BMP280;10593;48.398;10.698;2023-04-24T00:09:04;95251.63;;;21.57
20867;BMP280;10593;48.398;10.698;2023-04-24T00:11:30;95266.63;;;21.55
20867;BMP280;10593;48.398;10.698;2023-04-24T00:13:56;95262.44;;;21.52
20867;BMP280;10593;48.398;10.698;2023-04-24T00:16:23;95260.78;;;21.51
20867;BMP280;10593;48.398;10.698;2023-04-24T00:18:48;95252.22;;;21.49
20867;BMP280;10593;48.398;10.698;2023-04-24T00:21:15;95255.78;;;21.48
20867;BMP280;10593;48.398;10.698;2023-04-24T00:23:43;95262.06;;;21.46
20867;BMP280;10593;48.398;10.698;2023-04-24T00:26:09;95263.88;;;21.45
20867;BMP280;10593;48.398;10.698;2023-04-24T00:28:35;95257.91;;;21.43
20867;BMP280;10593;48.398;10.698;2023-04-24T00:31:00;95252.09;;;21.40
20867;BMP280;10593;48.398;10.698;2023-04-24T00:33:26;95260.88;;;21.39
20867;BMP280;10593;48.398;10.698;2023-04-24T00:35:52;95259.22;;;21.38
20867;BMP280;10593;48.398;10.698;2023-04-24T00:38:18;95256.72;;;21.36
20867;BMP280;10593;48.398;10.698;2023-04-24T00:40:44;95247.31;;;21.34
20867;BMP280;10593;48.398;10.698;2023-04-24T00:43:10;95245.78;;;21.32
20867;BMP280;10593;48.398;10.698;2023-04-24T00:45:36;95247.56;;;21.31
20867;BMP280;10593;48.398;10.698;2023-04-24T00:48:02;95233.78;;;21.29
20867;BMP280;10593;48.398;10.698;2023-04-24T00:50:29;95239.09;;;21.27
20867;BMP280;10593;48.398;10.698;2023-04-24T00:52:56;95237.56;;;21.25
20867;BMP280;10593;48.398;10.698;2023-04-24T00:55:21;95241.13;;;21.24
20867;BMP280;10593;48.398;10.698;2023-04-24T00:57:48;95237.69;;;21.24
20867;BMP280;10593;48.398;10.698;2023-04-24T01:00:15;95231.75;;;21.22
20867;BMP280;10593;48.398;10.698;2023-04-24T01:02:44;95233.66;;;21.20
20867;BMP280;10593;48.398;10.698;2023-04-24T01:05:15;95231.97;;;21.19
20867;BMP280;10593;48.398;10.698;2023-04-24T01:07:43;95226.00;;;21.17
20867;BMP280;10593;48.398;10.698;2023-04-24T01:10:12;95227.81;;;21.16
20867;BMP280;10593;48.398;10.698;2023-04-24T01:12:38;95228.03;;;21.13
20867;BMP280;10593;48.398;10.698;2023-04-24T01:15:05;95227.19;;;21.13
20867;BMP280;10593;48.398;10.698;2023-04-24T01:17:32;95223.88;;;21.11
20867;BMP280;10593;48.398;10.698;2023-04-24T01:20:00;95225.78;;;21.09
20867;BMP280;10593;48.398;10.698;2023-04-24T01:22:26;95232.75;;;21.08
20867;BMP280;10593;48.398;10.698;2023-04-24T01:24:53;95226.00;;;21.06
20867;BMP280;10593;48.398;10.698;2023-04-24T01:27:20;95225.16;;;21.05
20867;BMP280;10593;48.398;10.698;2023-04-24T01:29:46;95221.84;;;21.03
20867;BMP280;10593;48.398;10.698;2023-04-24T01:32:13;95226.34;;;21.01
20867;BMP280;10593;48.398;10.698;2023-04-24T01:34:40;95220.41;;;20.99
20867;BMP280;10593;48.398;10.698;2023-04-24T01:37:06;95220.41;;;20.99
20867;BMP280;10593;48.398;10.698;2023-04-24T01:39:32;95218.84;;;20.97
20867;BMP280;10593;48.398;10.698;2023-04-24T01:41:59;95216.34;;;20.95
20867;BMP280;10593;48.398;10.698;2023-04-24T01:44:26;95213.72;;;20.95
20867;BMP280;10593;48.398;10.698;2023-04-24T01:46:52;95213.97;;;20.92
20867;BMP280;10593;48.398;10.698;2023-04-24T01:49:19;95211.47;;;20.91
20867;BMP280;10593;48.398;10.698;2023-04-24T01:51:45;95206.25;;;20.91
20867;BMP280;10593;48.398;10.698;2023-04-24T01:54:11;95211.56;;;20.89
20867;BMP280;10593;48.398;10.698;2023-04-24T01:56:41;95209.06;;;20.88
20867;BMP280;10593;48.398;10.698;2023-04-24T01:59:10;95203.97;;;20.86
20867;BMP280;10593;48.398;10.698;2023-04-24T02:01:38;95201.47;;;20.85
20867;BMP280;10593;48.398;10.698;2023-04-24T02:04:07;95214.59;;;20.83
20867;BMP280;10593;48.398;10.698;2023-04-24T02:06:33;95212.13;;;20.82
20867;BMP280;10593;48.398;10.698;2023-04-24T02:08:59;95212.22;;;20.80
20867;BMP280;10593;48.398;10.698;2023-04-24T02:11:26;95214.97;;;20.79
20867;BMP280;10593;48.398;10.698;2023-04-24T02:13:52;95214.13;;;20.78
20867;BMP280;10593;48.398;10.698;2023-04-24T02:16:18;95209.84;;;20.77
20867;BMP280;10593;48.398;10.698;2023-04-24T02:18:44;95213.41;;;20.76
20867;BMP280;10593;48.398;10.698;2023-04-24T02:21:10;95217.91;;;20.74
20867;BMP280;10593;48.398;10.698;2023-04-24T02:23:36;95215.38;;;20.73
20867;BMP280;10593;48.398;10.698;2023-04-24T02:26:02;95211.97;;;20.72
20867;BMP280;10593;48.398;10.698;2023-04-24T02:28:27;95217.28;;;20.71
20867;BMP280;10593;48.398;10.698;2023-04-24T02:30:53;95206.13;;;20.69
20867;BMP280;10593;48.398;10.698;2023-04-24T02:33:19;95209.69;;;20.68
20867;BMP280;10593;48.398;10.698;2023-04-24T02:35:45;95214.06;;;20.67
20867;BMP280;10593;48.398;10.698;2023-04-24T02:38:11;95211.59;;;20.66
20867;BMP280;10593;48.398;10.698;2023-04-24T02:40:36;95210.88;;;20.64
20867;BMP280;10593;48.398;10.698;2023-04-24T02:43:02;95220.47;;;20.63
20867;BMP280;10593;48.398;10.698;2023-04-24T02:45:27;95224.03;;;20.62
20867;BMP280;10593;48.398;10.698;2023-04-24T02:47:53;95226.72;;;20.61
20867;BMP280;10593;48.398;10.698;2023-04-24T02:50:19;95221.63;;;20.59
20867;BMP280;10593;48.398;10.698;2023-04-24T02:52:44;95219.13;;;20.58
20867;BMP280;10593;48.398;10.698;2023-04-24T02:55:10;95226.16;;;20.57
20867;BMP280;10593;48.398;10.698;2023-04-24T02:57:36;95218.41;;;20.56
20867;BMP280;10593;48.398;10.698;2023-04-24T03:00:02;95220.19;;;20.55
20867;BMP280;10593;48.398;10.698;2023-04-24T03:02:28;95216.84;;;20.53
20867;BMP280;10593;48.398;10.698;2023-04-24T03:04:54;95215.19;;;20.52
20867;BMP280;10593;48.398;10.698;2023-04-24T03:07:20;95223.97;;;20.51
20867;BMP280;10593;48.398;10.698;2023-04-24T03:09:46;95222.28;;;20.50
20867;BMP280;10593;48.398;10.698;2023-04-24T03:12:13;95213.75;;;20.48
20867;BMP280;10593;48.398;10.698;2023-04-24T03:14:38;95216.38;;;20.48
20867;BMP280;10593;48.398;10.698;2023-04-24T03:17:04;95220.88;;;20.46
20867;BMP280;10593;48.398;10.698;2023-04-24T03:19:29;95211.38;;;20.45
20867;BMP280;10593;48.398;10.698;2023-04-24T03:21:55;95212.31;;;20.44
20867;BMP280;10593;48.398;10.698;2023-04-24T03:24:21;95208.97;;;20.42
20867;BMP280;10593;48.398;10.698;2023-04-24T03:26:47;95211.69;;;20.41
20867;BMP280;10593;48.398;10.698;2023-04-24T03:29:13;95200.41;;;20.40
20867;BMP280;10593;48.398;10.698;2023-04-24T03:31:39;95198.75;;;20.39
20867;BMP280;10593;48.398;10.698;2023-04-24T03:34:04;95201.50;;;20.38
20867;BMP280;10593;48.398;10.698;2023-04-24T03:36:30;95207.75;;;20.35
20867;BMP280;10593;48.398;10.698;2023-04-24T03:38:56;95208.56;;;20.36
20867;BMP280;10593;48.398;10.698;2023-04-24T03:41:22;95211.31;;;20.34
20867;BMP280;10593;48.398;10.698;2023-04-24T03:43:48;95205.38;;;20.32
20867;BMP280;10593;48.398;10.698;2023-04-24T03:46:13;95210.59;;;20.32
20867;BMP280;10593;48.398;10.698;2023-04-24T03:48:39;95215.09;;;20.30
20867;BMP280;10593;48.398;10.698;2023-04-24T03:51:05;95210.78;;;20.29
20867;BMP280;10593;48.398;10.698;2023-04-24T03:53:30;95210.91;;;20.28
20867;BMP280;10593;48.398;10.698;2023-04-24T03:55:56;95217.91;;;20.27
20867;BMP280;10593;48.398;10.698;2023-04-24T03:58:22;95219.78;;;20.25
20867;BMP280;10593;48.398;10.698;2023-04-24T04:00:47;95208.53;;;20.25
20867;BMP280;10593;48.398;10.698;2023-04-24T04:03:13;95208.63;;;20.23
20867;BMP280;10593;48.398;10.698;2023-04-24T04:05:40;95210.53;;;20.21
20867;BMP280;10593;48.398;10.698;2023-04-24T04:08:06;95205.31;;;20.21
20867;BMP280;10593;48.398;10.698;2023-04-24T04:10:31;95217.63;;;20.19
20867;BMP280;10593;48.398;10.698;2023-04-24T04:12:57;95208.13;;;20.18
20867;BMP280;10593;48.398;10.698;2023-04-24T04:15:23;95210.00;;;20.16
20867;BMP280;10593;48.398;10.698;2023-04-24T04:17:48;95215.22;;;20.16
20867;BMP280;10593;48.398;10.698;2023-04-24T04:20:14;95216.16;;;20.15
20867;BMP280;10593;48.398;10.698;2023-04-24T04:22:43;95213.69;;;20.14
20867;BMP280;10593;48.398;10.698;2023-04-24T04:25:09;95223.25;;;20.13
20867;BMP280;10593;48.398;10.698;2023-04-24T04:27:34;95219.13;;;20.11
20867;BMP280;10593;48.398;10.698;2023-04-24T04:30:02;95206.19;;;20.09
20867;BMP280;10593;48.398;10.698;2023-04-24T04:32:34;95223.59;;;20.09
20867;BMP280;10593;48.398;10.698;2023-04-24T04:35:01;95222.78;;;20.08
20867;BMP280;10593;48.398;10.698;2023-04-24T04:37:29;95228.22;;;20.05
20867;BMP280;10593;48.398;10.698;2023-04-24T04:39:55;95226.53;;;20.04
20867;BMP280;10593;48.398;10.698;2023-04-24T04:42:20;95234.38;;;20.04
20867;BMP280;10593;48.398;10.698;2023-04-24T04:44:46;95230.09;;;20.03
20867;BMP280;10593;48.398;10.698;2023-04-24T04:47:12;95224.94;;;20.02
20867;BMP280;10593;48.398;10.698;2023-04-24T04:49:38;95230.16;;;20.02
20867;BMP280;10593;48.398;10.698;2023-04-24T04:52:04;95230.25;;;20.00
20867;BMP280;10593;48.398;10.698;2023-04-24T04:54:30;95236.41;;;19.99
20867;BMP280;10593;48.398;10.698;2023-04-24T04:56:56;95232.16;;;19.98
20867;BMP280;10593;48.398;10.698;2023-04-24T04:59:22;95236.63;;;19.96
20867;BMP280;10593;48.398;10.698;2023-04-24T05:01:48;95240.91;;;19.97
20867;BMP280;10593;48.398;10.698;2023-04-24T05:04:14;95233.19;;;19.96
20867;BMP280;10593;48.398;10.698;2023-04-24T05:06:39;95240.19;;;19.95
20867;BMP280;10593;48.398;10.698;2023-04-24T05:09:05;95244.56;;;19.95
20867;BMP280;10593;48.398;10.698;2023-04-24T05:11:32;95243.75;;;19.94
20867;BMP280;10593;48.398;10.698;2023-04-24T05:13:58;95250.72;;;19.94
20867;BMP280;10593;48.398;10.698;2023-04-24T05:16:24;95255.13;;;19.93
20867;BMP280;10593;48.398;10.698;2023-04-24T05:18:49;95261.28;;;19.92
20867;BMP280;10593;48.398;10.698;2023-04-24T05:21:18;95262.22;;;19.91
20867;BMP280;10593;48.398;10.698;2023-04-24T05:23:44;95265.63;;;19.92
20867;BMP280;10593;48.398;10.698;2023-04-24T05:26:09;95266.69;;;19.89
20867;BMP280;10593;48.398;10.698;2023-04-24T05:28:35;95265.75;;;19.90
20867;BMP280;10593;48.398;10.698;2023-04-24T05:31:02;95263.16;;;19.90
20867;BMP280;10593;48.398;10.698;2023-04-24T05:33:28;95263.25;;;19.89
20867;BMP280;10593;48.398;10.698;2023-04-24T05:35:54;95265.00;;;19.88
20867;BMP280;10593;48.398;10.698;2023-04-24T05:38:20;95270.22;;;19.88
20867;BMP280;10593;48.398;10.698;2023-04-24T05:40:45;95265.13;;;19.87
20867;BMP280;10593;48.398;10.698;2023-04-24T05:43:12;95268.56;;;19.87
20867;BMP280;10593;48.398;10.698;2023-04-24T05:45:38;95269.50;;;19.86
20867;BMP280;10593;48.398;10.698;2023-04-24T05:48:04;95270.44;;;19.85
20867;BMP280;10593;48.398;10.698;2023-04-24T05:50:30;95283.38;;;19.87
20867;BMP280;10593;48.398;10.698;2023-04-24T05:52:55;95274.72;;;19.86
20867;BMP280;10593;48.398;10.698;2023-04-24T05:55:24;95281.72;;;19.86
20867;BMP280;10593;48.398;10.698;2023-04-24T05:57:51;95281.81;;;19.84
20867;BMP280;10593;48.398;10.698;2023-04-24T06:00:17;95282.75;;;19.83
20867;BMP280;10593;48.398;10.698;2023-04-24T06:02:45;95282.75;;;19.83
20867;BMP280;10593;48.398;10.698;2023-04-24T06:05:11;95285.38;;;19.83
20867;BMP280;10593;48.398;10.698;2023-04-24T06:07:37;95300.19;;;19.83
20867;BMP280;10593;48.398;10.698;2023-04-24T06:10:03;95296.75;;;19.82
20867;BMP280;10593;48.398;10.698;2023-04-24T06:12:29;95288.06;;;19.82
20867;BMP280;10593;48.398;10.698;2023-04-24T06:14:54;95290.78;;;19.80
20867;BMP280;10593;48.398;10.698;2023-04-24T06:17:23;95293.41;;;19.80
20867;BMP280;10593;48.398;10.698;2023-04-24T06:19:48;95293.41;;;19.80
20867;BMP280;10593;48.398;10.698;2023-04-24T06:22:14;95284.72;;;19.80
20867;BMP280;10593;48.398;10.698;2023-04-24T06:24:40;95290.78;;;19.80
20867;BMP280;10593;48.398;10.698;2023-04-24T06:27:06;95291.75;;;19.79
20867;BMP280;10593;48.398;10.698;2023-04-24T06:29:33;95298.72;;;19.79
20867;BMP280;10593;48.398;10.698;2023-04-24T06:31:59;95298.72;;;19.79
20867;BMP280;10593;48.398;10.698;2023-04-24T06:34:25;95297.91;;;19.78
20867;BMP280;10593;48.398;10.698;2023-04-24T06:36:51;95305.72;;;19.78
20867;BMP280;10593;48.398;10.698;2023-04-24T06:39:16;95304.06;;;19.77
20867;BMP280;10593;48.398;10.698;2023-04-24T06:41:42;95304.06;;;19.77
20867;BMP280;10593;48.398;10.698;2023-04-24T06:44:08;95310.94;;;19.78
20867;BMP280;10593;48.398;10.698;2023-04-24T06:46:33;95310.94;;;19.78
20867;BMP280;10593;48.398;10.698;2023-04-24T06:49:00;95310.22;;;19.76
20867;BMP280;10593;48.398;10.698;2023-04-24T06:51:27;95316.16;;;19.78
20867;BMP280;10593;48.398;10.698;2023-04-24T06:53:55;95323.13;;;19.78
20867;BMP280;10593;48.398;10.698;2023-04-24T06:56:22;95329.28;;;19.77
20867;BMP280;10593;48.398;10.698;2023-04-24T06:58:48;95339.69;;;19.77
20867;BMP280;10593;48.398;10.698;2023-04-24T07:01:13;95329.28;;;19.77
20867;BMP280;10593;48.398;10.698;2023-04-24T07:03:39;95339.69;;;19.77
20867;BMP280;10593;48.398;10.698;2023-04-24T07:06:05;95344.09;;;19.76
20867;BMP280;10593;48.398;10.698;2023-04-24T07:08:31;95345.75;;;19.77
20867;BMP280;10593;48.398;10.698;2023-04-24T07:10:59;95344.09;;;19.76
20867;BMP280;10593;48.398;10.698;2023-04-24T07:13:27;95350.97;;;19.77
20867;BMP280;10593;48.398;10.698;2023-04-24T07:15:54;95350.22;;;19.75
20867;BMP280;10593;48.398;10.698;2023-04-24T07:18:21;95358.88;;;19.76
20867;BMP280;10593;48.398;10.698;2023-04-24T07:20:47;95365.03;;;19.75
20867;BMP280;10593;48.398;10.698;2023-04-24T07:23:12;95376.28;;;19.75
20867;BMP280;10593;48.398;10.698;2023-04-24T07:25:39;95377.22;;;19.74
20867;BMP280;10593;48.398;10.698;2023-04-24T07:28:05;95382.44;;;19.74
20867;BMP280;10593;48.398;10.698;2023-04-24T07:30:31;95383.38;;;19.73
20867;BMP280;10593;48.398;10.698;2023-04-24T07:32:58;95384.22;;;19.74
20867;BMP280;10593;48.398;10.698;2023-04-24T07:35:25;95385.16;;;19.73
20867;BMP280;10593;48.398;10.698;2023-04-24T07:37:53;95389.53;;;19.72
20867;BMP280;10593;48.398;10.698;2023-04-24T07:40:19;95374.84;;;19.71
20867;BMP280;10593;48.398;10.698;2023-04-24T07:42:45;95378.28;;;19.72
20867;BMP280;10593;48.398;10.698;2023-04-24T07:45:14;95388.81;;;19.70
20867;BMP280;10593;48.398;10.698;2023-04-24T07:47:42;95388.81;;;19.70
20867;BMP280;10593;48.398;10.698;2023-04-24T07:50:09;95394.88;;;19.71
20867;BMP280;10593;48.398;10.698;2023-04-24T07:52:35;95389.66;;;19.71
20867;BMP280;10593;48.398;10.698;2023-04-24T07:55:02;95396.63;;;19.70
20867;BMP280;10593;48.398;10.698;2023-04-24T07:57:28;95398.41;;;19.70
20867;BMP280;10593;48.398;10.698;2023-04-24T07:59:54;95403.50;;;19.71
20867;BMP280;10593;48.398;10.698;2023-04-24T08:02:19;95390.47;;;19.71
20867;BMP280;10593;48.398;10.698;2023-04-24T08:04:47;95385.25;;;19.71
20867;BMP280;10593;48.398;10.698;2023-04-24T08:07:12;95389.53;;;19.72
20867;BMP280;10593;48.398;10.698;2023-04-24T08:09:38;95389.53;;;19.72
20867;BMP280;10593;48.398;10.698;2023-04-24T08:12:04;95374.84;;;19.71
20867;BMP280;10593;48.398;10.698;2023-04-24T08:14:30;95391.41;;;19.70
20867;BMP280;10593;48.398;10.698;2023-04-24T08:16:55;95388.00;;;19.70
20867;BMP280;10593;48.398;10.698;2023-04-24T08:19:21;95381.94;;;19.69
20867;BMP280;10593;48.398;10.698;2023-04-24T08:21:47;95386.19;;;19.70
20867;BMP280;10593;48.398;10.698;2023-04-24T08:24:13;95392.25;;;19.71
20867;BMP280;10593;48.398;10.698;2023-04-24T08:26:39;95393.94;;;19.72
20867;BMP280;10593;48.398;10.698;2023-04-24T08:29:05;95394.66;;;19.74
20867;BMP280;10593;48.398;10.698;2023-04-24T08:31:32;95392.78;;;19.76
20867;BMP280;10593;48.398;10.698;2023-04-24T08:33:57;95395.28;;;19.77
20867;BMP280;10593;48.398;10.698;2023-04-24T08:36:24;95395.28;;;19.77
20867;BMP280;10593;48.398;10.698;2023-04-24T08:38:49;95393.50;;;19.78
20867;BMP280;10593;48.398;10.698;2023-04-24T08:41:17;95397.69;;;19.80
20867;BMP280;10593;48.398;10.698;2023-04-24T08:43:46;95404.47;;;19.83
20867;BMP280;10593;48.398;10.698;2023-04-24T08:46:13;95396.53;;;19.84
20867;BMP280;10593;48.398;10.698;2023-04-24T08:48:39;95407.69;;;19.86
20867;BMP280;10593;48.398;10.698;2023-04-24T08:51:08;95403.22;;;19.88
20867;BMP280;10593;48.398;10.698;2023-04-24T08:53:35;95405.81;;;19.88
20867;BMP280;10593;48.398;10.698;2023-04-24T08:56:02;95404.06;;;19.89
20867;BMP280;10593;48.398;10.698;2023-04-24T08:58:28;95403.13;;;19.90
20867;BMP280;10593;48.398;10.698;2023-04-24T09:00:55;95411.66;;;19.92
20867;BMP280;10593;48.398;10.698;2023-04-24T09:03:22;95410.63;;;19.94
20867;BMP280;10593;48.398;10.698;2023-04-24T09:05:49;95409.59;;;19.97
20867;BMP280;10593;48.398;10.698;2023-04-24T09:08:18;95412.94;;;19.99
20867;BMP280;10593;48.398;10.698;2023-04-24T09:10:45;95410.22;;;20.00
20867;BMP280;10593;48.398;10.698;2023-04-24T09:13:10;95404.84;;;20.03
20867;BMP280;10593;48.398;10.698;2023-04-24T09:15:38;95404.72;;;20.05
20867;BMP280;10593;48.398;10.698;2023-04-24T09:18:05;95413.19;;;20.08
20867;BMP280;10593;48.398;10.698;2023-04-24T09:20:31;95401.72;;;20.11
20867;BMP280;10593;48.398;10.698;2023-04-24T09:22:58;95404.91;;;20.14
20867;BMP280;10593;48.398;10.698;2023-04-24T09:25:34;95409.19;;;20.15
20867;BMP280;10593;48.398;10.698;2023-04-24T09:28:04;95404.81;;;20.16
20867;BMP280;10593;48.398;10.698;2023-04-24T09:30:32;95402.00;;;20.19
20867;BMP280;10593;48.398;10.698;2023-04-24T09:33:14;95403.56;;;20.21
20867;BMP280;10593;48.398;10.698;2023-04-24T09:35:51;95399.09;;;20.23
20867;BMP280;10593;48.398;10.698;2023-04-24T09:38:17;95404.09;;;20.26
20867;BMP280;10593;48.398;10.698;2023-04-24T09:40:43;95402.09;;;20.30
20867;BMP280;10593;48.398;10.698;2023-04-24T09:43:12;95400.13;;;20.33
20867;BMP280;10593;48.398;10.698;2023-04-24T09:45:39;95403.47;;;20.35
20867;BMP280;10593;48.398;10.698;2023-04-24T09:48:08;95402.28;;;20.39
20867;BMP280;10593;48.398;10.698;2023-04-24T09:50:34;95414.41;;;20.40
20867;BMP280;10593;48.398;10.698;2023-04-24T09:53:06;95427.44;;;20.40
20867;BMP280;10593;48.398;10.698;2023-04-24T09:55:44;95436.22;;;20.39
20867;BMP280;10593;48.398;10.698;2023-04-24T09:58:11;95439.78;;;20.38
20867;BMP280;10593;48.398;10.698;2023-04-24T10:00:36;95441.56;;;20.38
20867;BMP280;10593;48.398;10.698;2023-04-24T10:03:05;95438.09;;;20.37
20867;BMP280;10593;48.398;10.698;2023-04-24T10:05:34;95440.81;;;20.36
20867;BMP280;10593;48.398;10.698;2023-04-24T10:08:03;95437.47;;;20.34
20867;BMP280;10593;48.398;10.698;2023-04-24T10:10:34;95445.53;;;20.31
20867;BMP280;10593;48.398;10.698;2023-04-24T10:13:03;95450.00;;;20.29
20867;BMP280;10593;48.398;10.698;2023-04-24T10:15:30;95446.69;;;20.27
20867;BMP280;10593;48.398;10.698;2023-04-24T10:17:58;95450.22;;;20.26
20867;BMP280;10593;48.398;10.698;2023-04-24T10:20:28;95445.97;;;20.25
20867;BMP280;10593;48.398;10.698;2023-04-24T10:22:56;95446.78;;;20.25
20867;BMP280;10593;48.398;10.698;2023-04-24T10:25:26;95452.94;;;20.24
20867;BMP280;10593;48.398;10.698;2023-04-24T10:27:53;95451.25;;;20.23
20867;BMP280;10593;48.398;10.698;2023-04-24T10:30:23;95449.59;;;20.22
20867;BMP280;10593;48.398;10.698;2023-04-24T10:32:49;95444.59;;;20.19
20867;BMP280;10593;48.398;10.698;2023-04-24T10:35:17;95450.75;;;20.18
20867;BMP280;10593;48.398;10.698;2023-04-24T10:37:47;95442.06;;;20.18
20867;BMP280;10593;48.398;10.698;2023-04-24T10:40:18;95450.75;;;20.18
20867;BMP280;10593;48.398;10.698;2023-04-24T10:42:48;95442.94;;;20.18
20867;BMP280;10593;48.398;10.698;2023-04-24T10:45:21;95444.69;;;20.18
20867;BMP280;10593;48.398;10.698;2023-04-24T10:48:03;95439.47;;;20.18
20867;BMP280;10593;48.398;10.698;2023-04-24T10:50:46;95444.59;;;20.19
20867;BMP280;10593;48.398;10.698;2023-04-24T10:53:17;95434.88;;;20.21
20867;BMP280;10593;48.398;10.698;2023-04-24T10:55:48;95438.31;;;20.22
20867;BMP280;10593;48.398;10.698;2023-04-24T10:58:14;95444.38;;;20.22
20867;BMP280;10593;48.398;10.698;2023-04-24T11:00:43;95443.44;;;20.23
20867;BMP280;10593;48.398;10.698;2023-04-24T11:03:28;95447.00;;;20.22
20867;BMP280;10593;48.398;10.698;2023-04-24T11:06:01;95445.31;;;20.21
20867;BMP280;10593;48.398;10.698;2023-04-24T11:08:32;95436.56;;;20.22
20867;BMP280;10593;48.398;10.698;2023-04-24T11:11:14;95446.03;;;20.23
20867;BMP280;10593;48.398;10.698;2023-04-24T11:16:45;95441.78;;;20.22
20867;BMP280;10593;48.398;10.698;2023-04-24T11:22:14;95435.81;;;20.20
20867;BMP280;10593;48.398;10.698;2023-04-24T11:24:49;95438.22;;;20.23
20867;BMP280;10593;48.398;10.698;2023-04-24T11:27:21;95439.88;;;20.24
20867;BMP280;10593;48.398;10.698;2023-04-24T11:32:42;95440.53;;;20.28
20867;BMP280;10593;48.398;10.698;2023-04-24T11:35:20;95439.47;;;20.30
20867;BMP280;10593;48.398;10.698;2023-04-24T11:37:52;95445.53;;;20.31
20867;BMP280;10593;48.398;10.698;2023-04-24T11:40:20;95435.09;;;20.31
20867;BMP280;10593;48.398;10.698;2023-04-24T11:42:53;95439.28;;;20.33
20867;BMP280;10593;48.398;10.698;2023-04-24T11:45:29;95434.88;;;20.34
20867;BMP280;10593;48.398;10.698;2023-04-24T11:47:55;95437.38;;;20.35
20867;BMP280;10593;48.398;10.698;2023-04-24T11:50:26;95460.78;;;20.37
20867;BMP280;10593;48.398;10.698;2023-04-24T11:52:53;95459.00;;;20.37
20867;BMP280;10593;48.398;10.698;2023-04-24T11:57:47;95477.03;;;20.40
20867;BMP280;10593;48.398;10.698;2023-04-24T12:00:23;95482.16;;;20.42
20867;BMP280;10593;48.398;10.698;2023-04-24T12:02:50;95475.06;;;20.44
20867;BMP280;10593;48.398;10.698;2023-04-24T12:05:28;95481.94;;;20.45
20867;BMP280;10593;48.398;10.698;2023-04-24T12:07:56;95484.69;;;20.43
20867;BMP280;10593;48.398;10.698;2023-04-24T12:10:24;95478.53;;;20.44
20867;BMP280;10593;48.398;10.698;2023-04-24T12:12:51;95488.97;;;20.44
20867;BMP280;10593;48.398;10.698;2023-04-24T12:15:19;95476.84;;;20.43
20867;BMP280;10593;48.398;10.698;2023-04-24T12:17:46;95480.28;;;20.44
20867;BMP280;10593;48.398;10.698;2023-04-24T12:20:13;95475.06;;;20.44
20867;BMP280;10593;48.398;10.698;2023-04-24T12:22:53;95482.91;;;20.44
20867;BMP280;10593;48.398;10.698;2023-04-24T12:25:25;95470.78;;;20.43
20867;BMP280;10593;48.398;10.698;2023-04-24T12:28:12;95476.84;;;20.43
20867;BMP280;10593;48.398;10.698;2023-04-24T12:30:47;95483.75;;;20.44
20867;BMP280;10593;48.398;10.698;2023-04-24T12:33:21;95484.56;;;20.45
20867;BMP280;10593;48.398;10.698;2023-04-24T12:35:51;95488.84;;;20.46
20867;BMP280;10593;48.398;10.698;2023-04-24T12:38:23;95484.47;;;20.46
20867;BMP280;10593;48.398;10.698;2023-04-24T12:41:06;95481.84;;;20.46
20867;BMP280;10593;48.398;10.698;2023-04-24T12:43:32;95491.44;;;20.46
20867;BMP280;10593;48.398;10.698;2023-04-24T12:45:58;95495.72;;;20.47
20867;BMP280;10593;48.398;10.698;2023-04-24T12:48:26;95494.78;;;20.48
20867;BMP280;10593;48.398;10.698;2023-04-24T12:50:51;95497.31;;;20.49
20867;BMP280;10593;48.398;10.698;2023-04-24T12:53:17;95494.59;;;20.51
20867;BMP280;10593;48.398;10.698;2023-04-24T12:55:43;95497.22;;;20.51
20867;BMP280;10593;48.398;10.698;2023-04-24T12:58:10;95497.31;;;20.49
20867;BMP280;10593;48.398;10.698;2023-04-24T13:00:36;95492.91;;;20.50
20867;BMP280;10593;48.398;10.698;2023-04-24T13:03:03;95499.91;;;20.49
20867;BMP280;10593;48.398;10.698;2023-04-24T13:05:28;95496.44;;;20.49
20867;BMP280;10593;48.398;10.698;2023-04-24T13:07:54;95492.91;;;20.50
20867;BMP280;10593;48.398;10.698;2023-04-24T13:10:20;95497.22;;;20.51
20867;BMP280;10593;48.398;10.698;2023-04-24T13:12:45;95495.41;;;20.51
20867;BMP280;10593;48.398;10.698;2023-04-24T13:15:12;95496.16;;;20.53
20867;BMP280;10593;48.398;10.698;2023-04-24T13:17:37;95499.59;;;20.54
20867;BMP280;10593;48.398;10.698;2023-04-24T13:20:04;95488.94;;;20.57
20867;BMP280;10593;48.398;10.698;2023-04-24T13:22:30;95488.00;;;20.58
20867;BMP280;10593;48.398;10.698;2023-04-24T13:24:55;95494.06;;;20.58
20867;BMP280;10593;48.398;10.698;2023-04-24T13:27:21;95507.84;;;20.60
20867;BMP280;10593;48.398;10.698;2023-04-24T13:29:47;95508.78;;;20.59
20867;BMP280;10593;48.398;10.698;2023-04-24T13:32:13;95505.25;;;20.60
20867;BMP280;10593;48.398;10.698;2023-04-24T13:34:38;95505.25;;;20.60
20867;BMP280;10593;48.398;10.698;2023-04-24T13:37:08;95512.13;;;20.61
20867;BMP280;10593;48.398;10.698;2023-04-24T13:39:33;95512.94;;;20.62
20867;BMP280;10593;48.398;10.698;2023-04-24T13:41:59;95501.69;;;20.61
20867;BMP280;10593;48.398;10.698;2023-04-24T13:44:26;95512.13;;;20.61
20867;BMP280;10593;48.398;10.698;2023-04-24T13:46:55;95506.91;;;20.61
20867;BMP280;10593;48.398;10.698;2023-04-24T13:49:24;95515.69;;;20.60
20867;BMP280;10593;48.398;10.698;2023-04-24T13:51:51;95513.88;;;20.61
20867;BMP280;10593;48.398;10.698;2023-04-24T13:54:17;95506.06;;;20.61
20867;BMP280;10593;48.398;10.698;2023-04-24T13:56:43;95505.25;;;20.60
20867;BMP280;10593;48.398;10.698;2023-04-24T13:59:09;95515.69;;;20.60
20867;BMP280;10593;48.398;10.698;2023-04-24T14:01:35;95516.41;;;20.62
20867;BMP280;10593;48.398;10.698;2023-04-24T14:04:01;95518.16;;;20.62
20867;BMP280;10593;48.398;10.698;2023-04-24T14:06:27;95512.13;;;20.61
20867;BMP280;10593;48.398;10.698;2023-04-24T14:08:52;95505.25;;;20.60